createdAt,value
2023-04-10T00:01:36.725Z,8.36
2023-04-10T00:04:05.471Z,8.49
2023-04-10T00:06:34.364Z,8.02
2023-04-10T00:09:02.861Z,8.50
2023-04-10T00:11:32.530Z,8.46
2023-04-10T00:14:00.923Z,8.37
2023-04-10T00:16:29.248Z,8.43
2023-04-10T00:18:57.558Z,8.48
2023-04-10T00:21:26.497Z,8.61
2023-04-10T00:23:54.917Z,8.53
2023-04-10T00:26:24.038Z,8.76
2023-04-10T00:28:53.697Z,8.39
2023-04-10T00:31:22.056Z,8.65
2023-04-10T00:33:50.481Z,8.61
2023-04-10T00:36:20.014Z,8.62
2023-04-10T00:38:49.876Z,8.93
2023-04-10T00:41:18.236Z,9.27
2023-04-10T00:43:47.086Z,9.39
2023-04-10T00:46:17.476Z,9.00
2023-04-10T00:48:46.029Z,9.21
2023-04-10T00:51:14.662Z,8.89
2023-04-10T00:53:42.960Z,8.85
2023-04-10T00:56:11.488Z,9.17
2023-04-10T00:58:39.931Z,9.14
2023-04-10T01:01:08.932Z,9.32
2023-04-10T01:03:39.790Z,8.78
2023-04-10T01:06:18.026Z,8.99
2023-04-10T01:08:54.865Z,8.72
2023-04-10T01:11:34.308Z,8.36
2023-04-10T01:14:08.849Z,8.59
2023-04-10T01:16:45.152Z,8.85
2023-04-10T01:19:27.384Z,9.18
2023-04-10T01:21:57.298Z,9.40
2023-04-10T01:24:44.668Z,9.33
2023-04-10T01:27:28.576Z,9.38
2023-04-10T01:29:59.898Z,9.64
2023-04-10T01:32:32.078Z,9.65
2023-04-10T01:35:03.762Z,9.21
2023-04-10T01:37:35.200Z,9.07
2023-04-10T01:40:06.957Z,9.23
2023-04-10T01:42:45.111Z,8.74
2023-04-10T01:45:19.807Z,8.98
2023-04-10T01:47:48.728Z,9.09
2023-04-10T01:50:18.190Z,8.61
2023-04-10T01:52:47.795Z,8.36
2023-04-10T01:55:16.935Z,8.50
2023-04-10T01:57:45.972Z,8.02
2023-04-10T02:00:16.412Z,8.44
2023-04-10T02:02:46.009Z,8.41
2023-04-10T02:05:17.186Z,8.92
2023-04-10T02:07:49.887Z,9.14
2023-04-10T02:10:23.849Z,8.86
2023-04-10T02:12:56.800Z,9.06
2023-04-10T02:15:28.765Z,8.77
2023-04-10T02:17:59.987Z,8.90
2023-04-10T02:20:28.617Z,8.60
2023-04-10T02:22:59.671Z,8.45
2023-04-10T02:25:28.044Z,8.56
2023-04-10T02:27:56.341Z,8.52
2023-04-10T02:30:25.019Z,8.44
2023-04-10T02:32:55.521Z,8.71
2023-04-10T02:35:23.828Z,9.06
2023-04-10T02:37:52.101Z,8.93
2023-04-10T02:40:20.406Z,9.12
2023-04-10T02:42:48.725Z,9.15
2023-04-10T02:45:17.174Z,9.28
2023-04-10T02:47:45.478Z,9.11
2023-04-10T02:50:15.254Z,9.22
2023-04-10T02:52:43.584Z,9.48
2023-04-10T02:55:12.414Z,9.09
2023-04-10T02:57:41.078Z,9.02
2023-04-10T03:00:10.830Z,9.23
2023-04-10T03:02:39.405Z,9.39
2023-04-10T03:05:09.239Z,9.47
2023-04-10T03:07:38.936Z,9.45
2023-04-10T03:10:08.206Z,9.37
2023-04-10T03:12:36.488Z,8.91
2023-04-10T03:15:05.267Z,9.17
2023-04-10T03:17:33.485Z,9.24
2023-04-10T03:20:01.744Z,9.04
2023-04-10T03:22:32.345Z,8.88
2023-04-10T03:25:02.672Z,9.07
2023-04-10T03:27:32.369Z,8.64
2023-04-10T03:30:00.966Z,8.66
2023-04-10T03:32:31.296Z,8.63
2023-04-10T03:34:59.922Z,8.56
2023-04-10T03:37:28.600Z,8.69
2023-04-10T03:39:57.287Z,8.77
2023-04-10T03:42:27.216Z,8.65
2023-04-10T03:44:55.558Z,8.72
2023-04-10T03:47:23.793Z,8.61
2023-04-10T03:49:52.042Z,8.78
2023-04-10T03:52:21.282Z,8.77
2023-04-10T03:54:49.642Z,8.94
2023-04-10T03:57:19.385Z,9.11
2023-04-10T03:59:49.430Z,9.12
2023-04-10T04:02:17.753Z,9.24
2023-04-10T04:04:46.225Z,9.24
2023-04-10T04:07:14.768Z,8.90
2023-04-10T04:09:43.102Z,9.07
2023-04-10T04:12:11.360Z,9.11
2023-04-10T04:14:39.807Z,9.11
2023-04-10T04:17:09.462Z,8.73
2023-04-10T04:19:37.746Z,8.92
2023-04-10T04:22:06.069Z,9.00
2023-04-10T04:24:34.364Z,9.31
2023-04-10T04:27:02.865Z,9.55
2023-04-10T04:29:31.253Z,9.70
2023-04-10T04:31:59.570Z,9.71
2023-04-10T04:34:29.369Z,9.58
2023-04-10T04:36:57.613Z,9.65
2023-04-10T04:39:26.043Z,9.67
2023-04-10T04:41:54.281Z,9.57
2023-04-10T04:44:22.553Z,9.52
2023-04-10T04:46:50.810Z,9.26
2023-04-10T04:49:19.091Z,9.18
2023-04-10T04:51:48.903Z,9.54
2023-04-10T04:54:17.197Z,10.02
2023-04-10T04:56:45.474Z,10.43
2023-04-10T04:59:14.838Z,10.76
2023-04-10T05:01:43.200Z,10.81
2023-04-10T05:04:11.792Z,11.19
2023-04-10T05:06:40.325Z,11.09
2023-04-10T05:09:10.027Z,11.10
2023-04-10T05:11:38.289Z,11.30
2023-04-10T05:14:07.616Z,11.30
2023-04-10T05:16:35.947Z,11.20
2023-04-10T05:19:04.262Z,11.44
2023-04-10T05:21:32.941Z,11.57
2023-04-10T05:24:01.170Z,11.36
2023-04-10T05:26:30.822Z,11.20
2023-04-10T05:28:59.179Z,11.51
2023-04-10T05:31:27.527Z,11.62
2023-04-10T05:33:56.120Z,11.35
2023-04-10T05:36:24.342Z,11.35
2023-04-10T05:38:53.026Z,11.45
2023-04-10T05:41:22.022Z,11.42
2023-04-10T05:43:51.753Z,11.43
2023-04-10T05:46:23.209Z,11.60
2023-04-10T05:48:51.937Z,11.78
2023-04-10T05:51:20.345Z,11.63
2023-04-10T05:53:50.205Z,11.75
2023-04-10T05:56:18.465Z,11.58
2023-04-10T05:58:46.766Z,11.86
2023-04-10T06:01:16.419Z,11.92
2023-04-10T06:03:45.208Z,11.72
2023-04-10T06:06:13.675Z,12.20
2023-04-10T06:08:42.042Z,12.22
2023-04-10T06:11:10.743Z,12.19
2023-04-10T06:13:38.987Z,12.27
2023-04-10T06:16:08.179Z,12.32
2023-04-10T06:18:38.673Z,12.69
2023-04-10T06:21:07.412Z,12.39
2023-04-10T06:23:36.002Z,12.53
2023-04-10T06:26:04.718Z,12.69
2023-04-10T06:28:33.053Z,11.75
2023-04-10T06:31:03.675Z,12.68
2023-04-10T06:33:36.329Z,12.90
2023-04-10T06:36:06.566Z,13.12
2023-04-10T06:38:37.882Z,13.06
2023-04-10T06:41:07.109Z,13.33
2023-04-10T06:43:36.028Z,12.70
2023-04-10T06:46:05.331Z,13.27
2023-04-10T06:48:33.813Z,13.28
2023-04-10T06:51:02.320Z,12.33
2023-04-10T06:53:32.000Z,13.12
2023-04-10T06:56:02.977Z,13.37
2023-04-10T06:58:32.079Z,13.19
2023-04-10T07:01:04.555Z,13.47
2023-04-10T07:03:34.009Z,13.32
2023-04-10T07:06:03.526Z,13.57
2023-04-10T07:08:33.384Z,13.77
2023-04-10T07:11:01.748Z,13.77
2023-04-10T07:13:30.014Z,13.87
2023-04-10T07:15:58.323Z,14.07
2023-04-10T07:18:27.255Z,14.08
2023-04-10T07:20:55.502Z,13.49
2023-04-10T07:23:23.767Z,13.51
2023-04-10T07:25:53.604Z,13.65
2023-04-10T07:28:21.915Z,13.46
2023-04-10T07:30:50.222Z,13.60
2023-04-10T07:33:18.708Z,13.20
2023-04-10T07:35:47.146Z,13.13
2023-04-10T07:38:15.548Z,14.15
2023-04-10T07:40:43.768Z,13.41
2023-04-10T07:43:13.471Z,13.91
2023-04-10T07:45:42.826Z,13.55
2023-04-10T07:48:11.337Z,13.42
2023-04-10T07:50:39.575Z,14.09
2023-04-10T07:53:08.288Z,14.35
2023-04-10T07:55:39.712Z,14.22
2023-04-10T07:58:08.150Z,14.11
2023-04-10T08:00:38.244Z,13.87
2023-04-10T08:03:07.374Z,14.10
2023-04-10T08:05:36.536Z,13.88
2023-04-10T08:08:04.784Z,14.35
2023-04-10T08:10:33.313Z,14.10
2023-04-10T08:13:01.749Z,13.93
2023-04-10T08:15:29.985Z,14.10
2023-04-10T08:17:59.773Z,14.41
2023-04-10T08:20:28.602Z,14.38
2023-04-10T08:23:03.124Z,14.18
2023-04-10T08:25:41.244Z,14.35
2023-04-10T08:28:09.620Z,14.13
2023-04-10T08:30:37.954Z,14.17
2023-04-10T08:33:07.789Z,13.74
2023-04-10T08:35:36.244Z,13.79
2023-04-10T08:38:13.493Z,13.70
2023-04-10T08:40:42.300Z,13.71
2023-04-10T08:43:10.594Z,14.08
2023-04-10T08:45:39.065Z,14.17
2023-04-10T08:48:09.877Z,14.16
2023-04-10T08:50:43.482Z,14.28
2023-04-10T08:53:14.505Z,13.99
2023-04-10T08:55:44.037Z,13.59
2023-04-10T08:58:13.855Z,14.61
2023-04-10T09:00:42.224Z,14.72
2023-04-10T09:03:14.523Z,14.51
2023-04-10T09:05:43.238Z,13.84
2023-04-10T09:08:12.372Z,14.38
2023-04-10T09:10:40.701Z,14.32
2023-04-10T09:13:09.121Z,14.51
2023-04-10T09:15:58.613Z,14.68
2023-04-10T09:18:45.922Z,14.72
2023-04-10T09:21:16.828Z,15.04
2023-04-10T09:23:46.384Z,14.56
2023-04-10T09:26:25.565Z,14.73
2023-04-10T09:29:02.336Z,14.32
2023-04-10T09:31:33.166Z,14.03
2023-04-10T09:34:14.304Z,13.91
2023-04-10T09:36:43.413Z,13.92
2023-04-10T09:39:13.045Z,14.27
2023-04-10T09:41:52.732Z,14.00
2023-04-10T09:44:30.623Z,14.29
2023-04-10T09:46:59.268Z,14.49
2023-04-10T09:49:29.026Z,14.23
2023-04-10T09:51:57.658Z,14.42
2023-04-10T09:54:38.239Z,14.35
2023-04-10T09:57:08.442Z,14.38
2023-04-10T09:59:41.850Z,14.12
2023-04-10T10:02:11.243Z,14.20
2023-04-10T10:04:42.743Z,14.32
2023-04-10T10:07:11.185Z,13.71
2023-04-10T10:09:39.894Z,13.99
2023-04-10T10:12:10.354Z,14.10
2023-04-10T10:14:46.281Z,14.07
2023-04-10T10:17:19.742Z,14.07
2023-04-10T10:19:58.514Z,14.31
2023-04-10T10:22:28.963Z,14.72
2023-04-10T10:24:58.569Z,14.69
2023-04-10T10:27:28.680Z,13.93
2023-04-10T10:30:02.986Z,14.46
2023-04-10T10:32:36.648Z,14.27
2023-04-10T10:35:08.183Z,14.08
2023-04-10T10:37:37.805Z,13.94
2023-04-10T10:40:13.862Z,14.06
2023-04-10T10:42:46.822Z,14.34
2023-04-10T10:45:19.110Z,14.27
2023-04-10T10:47:50.970Z,13.95
2023-04-10T10:50:23.430Z,14.12
2023-04-10T10:52:54.203Z,14.32
2023-04-10T10:55:38.005Z,14.53
2023-04-10T10:58:08.192Z,14.78
2023-04-10T11:01:10.300Z,15.13
2023-04-10T11:03:39.557Z,15.36
2023-04-10T11:06:12.937Z,15.55
2023-04-10T11:08:53.249Z,14.90
2023-04-10T11:11:23.767Z,15.08
2023-04-10T11:14:18.229Z,15.42
2023-04-10T11:16:48.460Z,15.41
2023-04-10T11:19:22.787Z,15.66
2023-04-10T11:22:10.728Z,15.77
2023-04-10T11:24:59.781Z,15.52
2023-04-10T11:27:46.529Z,16.22
2023-04-10T11:30:31.466Z,16.34
2023-04-10T11:33:00.731Z,16.99
2023-04-10T11:35:31.554Z,17.29
2023-04-10T11:38:18.330Z,17.41
2023-04-10T11:41:04.598Z,17.60
2023-04-10T11:43:33.940Z,16.43
2023-04-10T11:46:08.144Z,16.59
2023-04-10T11:48:38.213Z,16.51
2023-04-10T11:51:11.825Z,15.88
2023-04-10T11:53:43.933Z,16.02
2023-04-10T11:56:21.294Z,15.52
2023-04-10T11:58:55.138Z,15.57
2023-04-10T12:01:23.980Z,15.52
2023-04-10T12:03:52.529Z,15.57
2023-04-10T12:06:21.197Z,14.83
2023-04-10T12:08:51.347Z,14.84
2023-04-10T12:11:21.449Z,14.68
2023-04-10T12:13:50.899Z,14.32
2023-04-10T12:16:19.681Z,15.08
2023-04-10T12:18:48.346Z,14.67
2023-04-10T12:21:16.941Z,14.48
2023-04-10T12:23:45.238Z,13.75
2023-04-10T12:26:16.959Z,13.92
2023-04-10T12:28:57.709Z,13.70
2023-04-10T12:31:30.483Z,14.10
2023-04-10T12:33:59.201Z,14.36
2023-04-10T12:36:30.152Z,13.86
2023-04-10T12:38:58.893Z,14.07
2023-04-10T12:41:30.660Z,13.87
2023-04-10T12:44:09.864Z,13.55
2023-04-10T12:46:38.233Z,13.40
2023-04-10T12:49:14.118Z,13.30
2023-04-10T12:51:49.993Z,13.65
2023-04-10T12:54:32.130Z,13.75
2023-04-10T12:57:01.906Z,13.91
2023-04-10T12:59:30.919Z,14.10
2023-04-10T13:01:59.382Z,14.25
2023-04-10T13:04:28.430Z,13.86
2023-04-10T13:06:57.190Z,14.23
2023-04-10T13:09:25.485Z,14.59
2023-04-10T13:11:53.745Z,14.36
2023-04-10T13:14:24.108Z,14.12
2023-04-10T13:16:52.363Z,14.57
2023-04-10T13:19:20.826Z,14.64
2023-04-10T13:21:50.880Z,14.73
2023-04-10T13:24:19.112Z,14.90
2023-04-10T13:26:47.473Z,15.11
2023-04-10T13:29:15.743Z,14.87
2023-04-10T13:31:45.522Z,14.61
2023-04-10T13:34:13.728Z,14.38
2023-04-10T13:36:42.103Z,14.55
2023-04-10T13:39:10.412Z,13.78
2023-04-10T13:41:38.718Z,13.63
2023-04-10T13:44:07.064Z,13.98
2023-04-10T13:46:35.424Z,14.27
2023-04-10T13:49:05.350Z,14.21
2023-04-10T13:51:33.658Z,14.32
2023-04-10T13:54:03.032Z,14.38
2023-04-10T13:56:31.501Z,14.70
2023-04-10T13:58:59.880Z,14.83
2023-04-10T14:01:28.320Z,14.79
2023-04-10T14:03:56.968Z,14.61
2023-04-10T14:06:27.351Z,13.82
2023-04-10T14:08:55.917Z,13.59
2023-04-10T14:11:24.402Z,13.37
2023-04-10T14:13:52.770Z,13.63
2023-04-10T14:16:21.226Z,13.74
2023-04-10T14:18:49.778Z,13.60
2023-04-10T14:21:20.477Z,13.76
2023-04-10T14:23:50.500Z,13.63
2023-04-10T14:26:18.852Z,13.92
2023-04-10T14:28:47.165Z,13.95
2023-04-10T14:31:15.611Z,13.96
2023-04-10T14:33:43.955Z,13.59
2023-04-10T14:36:12.306Z,13.58
2023-04-10T14:38:40.684Z,13.70
2023-04-10T14:41:10.482Z,13.59
2023-04-10T14:43:39.357Z,13.16
2023-04-10T14:46:08.370Z,13.71
2023-04-10T14:48:36.761Z,13.57
2023-04-10T14:51:05.726Z,13.29
2023-04-10T14:53:34.004Z,13.40
2023-04-10T14:56:02.323Z,13.28
2023-04-10T14:58:31.968Z,13.50
2023-04-10T15:01:00.298Z,13.40
2023-04-10T15:03:28.907Z,13.18
2023-04-10T15:06:01.253Z,12.99
2023-04-10T15:08:29.655Z,13.33
2023-04-10T15:10:57.973Z,12.94
2023-04-10T15:13:26.530Z,13.07
2023-04-10T15:15:56.619Z,13.14
2023-04-10T15:18:25.696Z,13.05
2023-04-10T15:20:55.424Z,12.77
2023-04-10T15:23:23.788Z,13.03
2023-04-10T15:25:52.265Z,13.32
2023-04-10T15:28:20.659Z,13.07
2023-04-10T15:30:50.199Z,12.93
2023-04-10T15:33:21.803Z,13.13
2023-04-10T15:35:50.910Z,13.46
2023-04-10T15:38:19.168Z,13.48
2023-04-10T15:40:47.484Z,13.79
2023-04-10T15:43:15.721Z,13.47
2023-04-10T15:45:43.959Z,13.99
2023-04-10T15:48:12.336Z,13.90
2023-04-10T15:50:43.258Z,13.69
2023-04-10T15:53:11.663Z,13.62
2023-04-10T15:55:41.298Z,13.14
2023-04-10T15:58:09.664Z,13.33
2023-04-10T16:00:37.973Z,13.80
2023-04-10T16:03:07.139Z,13.86
2023-04-10T16:05:35.612Z,13.89
2023-04-10T16:08:05.353Z,13.72
2023-04-10T16:10:33.725Z,13.51
2023-04-10T16:13:04.432Z,13.62
2023-04-10T16:15:35.821Z,13.78
2023-04-10T16:18:04.805Z,13.52
2023-04-10T16:20:33.196Z,13.65
2023-04-10T16:23:02.158Z,13.72
2023-04-10T16:25:31.950Z,13.76
2023-04-10T16:28:00.355Z,13.64
2023-04-10T16:30:28.716Z,13.55
2023-04-10T16:32:57.113Z,13.69
2023-04-10T16:35:25.496Z,13.34
2023-04-10T16:37:54.965Z,13.41
2023-04-10T16:40:23.242Z,13.29
2023-04-10T16:42:52.874Z,13.16
2023-04-10T16:45:21.270Z,12.86
2023-04-10T16:47:49.615Z,12.74
2023-04-10T16:50:18.157Z,12.79
2023-04-10T16:52:46.452Z,12.86
2023-04-10T16:55:14.994Z,12.80
2023-04-10T16:57:44.265Z,12.80
2023-04-10T17:00:15.229Z,12.38
2023-04-10T17:02:44.194Z,12.38
2023-04-10T17:05:13.799Z,12.22
2023-04-10T17:07:43.671Z,12.58
2023-04-10T17:10:13.254Z,12.35
2023-04-10T17:12:42.550Z,12.49
2023-04-10T17:15:11.611Z,12.35
2023-04-10T17:17:41.234Z,12.23
2023-04-10T17:20:10.332Z,12.23
2023-04-10T17:22:39.387Z,12.04
2023-04-10T17:25:08.784Z,12.29
2023-04-10T17:27:40.321Z,12.23
2023-04-10T17:30:13.194Z,12.39
2023-04-10T17:32:43.637Z,12.13
2023-04-10T17:35:11.931Z,12.27
2023-04-10T17:37:40.164Z,12.14
2023-04-10T17:40:09.933Z,11.73
2023-04-10T17:42:38.245Z,11.63
2023-04-10T17:45:07.622Z,11.45
2023-04-10T17:47:36.390Z,11.71
2023-04-10T17:50:06.944Z,11.78
2023-04-10T17:52:35.629Z,11.80
2023-04-10T17:55:03.935Z,11.76
2023-04-10T17:57:32.276Z,11.67
2023-04-10T18:00:00.524Z,11.70
2023-04-10T18:02:28.932Z,11.80
2023-04-10T18:04:57.808Z,11.98
2023-04-10T18:07:27.472Z,12.03
2023-04-10T18:09:55.841Z,11.97
2023-04-10T18:12:24.165Z,12.13
2023-04-10T18:14:52.457Z,11.80
2023-04-10T18:17:20.784Z,11.82
2023-04-10T18:19:49.172Z,11.59
2023-04-10T18:22:17.533Z,11.69
2023-04-10T18:24:49.103Z,11.45
2023-04-10T18:27:17.448Z,11.43
2023-04-10T18:29:46.716Z,11.46
2023-04-10T18:32:15.059Z,11.46
2023-04-10T18:34:43.379Z,11.53
2023-04-10T18:37:11.649Z,11.06
2023-04-10T18:39:39.972Z,10.98
2023-04-10T18:42:10.860Z,11.40
2023-04-10T18:44:39.155Z,11.27
2023-04-10T18:47:07.622Z,11.31
2023-04-10T18:49:36.066Z,11.25
2023-04-10T18:52:04.493Z,11.29
2023-04-10T18:54:32.962Z,11.29
2023-04-10T18:57:01.333Z,11.18
2023-04-10T18:59:32.151Z,10.58
2023-04-10T19:02:00.614Z,11.00
2023-04-10T19:04:29.133Z,11.13
2023-04-10T19:06:57.425Z,11.19
2023-04-10T19:09:25.761Z,11.06
2023-04-10T19:11:54.161Z,11.12
2023-04-10T19:14:22.463Z,11.07
2023-04-10T19:16:52.134Z,11.15
2023-04-10T19:19:20.709Z,11.10
2023-04-10T19:21:49.050Z,11.07
2023-04-10T19:24:17.308Z,11.33
2023-04-10T19:26:45.671Z,11.14
2023-04-10T19:29:14.016Z,10.89
2023-04-10T19:31:42.233Z,10.99
2023-04-10T19:34:12.698Z,10.92
2023-04-10T19:36:41.943Z,10.72
2023-04-10T19:39:10.496Z,10.86
2023-04-10T19:41:43.898Z,11.07
2023-04-10T19:44:12.286Z,11.19
2023-04-10T19:46:40.656Z,10.51
2023-04-10T19:49:09.016Z,11.08
2023-04-10T19:51:38.680Z,11.05
2023-04-10T19:54:07.543Z,10.60
2023-04-10T19:56:37.904Z,11.00
2023-04-10T19:59:06.168Z,11.06
2023-04-10T20:01:35.923Z,11.00
2023-04-10T20:04:04.621Z,10.95
2023-04-10T20:06:33.203Z,11.02
2023-04-10T20:09:02.904Z,11.31
2023-04-10T20:11:31.642Z,11.43
2023-04-10T20:13:59.999Z,10.82
2023-04-10T20:16:28.359Z,11.08
2023-04-10T20:18:56.900Z,11.22
2023-04-10T20:21:25.542Z,11.15
2023-04-10T20:23:53.821Z,11.12
2023-04-10T20:26:25.720Z,11.21
2023-04-10T20:28:54.447Z,11.31
2023-04-10T20:31:23.120Z,11.32
2023-04-10T20:33:51.462Z,11.57
2023-04-10T20:36:19.870Z,11.49
2023-04-10T20:38:48.155Z,11.42
2023-04-10T20:41:16.482Z,11.17
2023-04-10T20:43:46.277Z,10.91
2023-04-10T20:46:14.483Z,11.32
2023-04-10T20:48:42.741Z,11.45
2023-04-10T20:51:11.176Z,11.62
2023-04-10T20:53:39.375Z,11.36
2023-04-10T20:56:08.104Z,11.38
2023-04-10T20:58:36.440Z,11.14
2023-04-10T21:01:06.394Z,11.25
2023-04-10T21:03:34.784Z,11.29
2023-04-10T21:06:04.511Z,11.18
2023-04-10T21:08:32.776Z,10.88
2023-04-10T21:11:01.120Z,11.04
2023-04-10T21:13:29.381Z,10.84
2023-04-10T21:15:57.617Z,10.36
2023-04-10T21:18:27.327Z,10.25
2023-04-10T21:20:55.642Z,10.20
2023-04-10T21:23:23.847Z,10.35
2023-04-10T21:25:53.545Z,10.30
2023-04-10T21:28:22.003Z,10.24
2023-04-10T21:30:50.250Z,10.19
2023-04-10T21:33:18.592Z,9.80
2023-04-10T21:35:48.957Z,10.33
2023-04-10T21:38:17.257Z,9.85
2023-04-10T21:40:52.167Z,9.45
2023-04-10T21:43:20.625Z,9.27
2023-04-10T21:45:49.065Z,9.62
2023-04-10T21:48:17.449Z,9.76
2023-04-10T21:50:45.714Z,10.06
2023-04-10T21:53:15.549Z,10.17
2023-04-10T21:55:43.904Z,10.48
2023-04-10T21:58:12.252Z,10.62
2023-04-10T22:00:41.648Z,10.45
2023-04-10T22:03:10.978Z,10.50
2023-04-10T22:05:39.349Z,10.38
2023-04-10T22:08:07.708Z,10.49
2023-04-10T22:10:38.133Z,10.19
2023-04-10T22:13:06.742Z,9.91
2023-04-10T22:15:35.926Z,9.88
2023-04-10T22:18:04.257Z,9.42
2023-04-10T22:20:32.561Z,9.44
2023-04-10T22:23:00.845Z,9.78
2023-04-10T22:25:29.116Z,9.64
2023-04-10T22:27:59.153Z,9.54
2023-04-10T22:30:27.890Z,9.79
2023-04-10T22:32:57.493Z,10.00
2023-04-10T22:35:25.961Z,10.08
2023-04-10T22:37:54.248Z,10.35
2023-04-10T22:40:22.438Z,9.89
2023-04-10T22:42:50.689Z,9.68
2023-04-10T22:45:20.460Z,9.75
2023-04-10T22:47:48.840Z,9.84
2023-04-10T22:50:17.197Z,9.95
2023-04-10T22:52:45.522Z,9.46
2023-04-10T22:55:14.487Z,9.27
2023-04-10T22:57:42.860Z,9.25
2023-04-10T23:00:11.928Z,9.35
2023-04-10T23:02:41.655Z,9.61
2023-04-10T23:05:10.795Z,9.58
2023-04-10T23:07:39.066Z,9.48
2023-04-10T23:10:08.754Z,9.51
2023-04-10T23:12:37.866Z,9.78
2023-04-10T23:15:07.312Z,9.84
2023-04-10T23:17:35.581Z,9.36
2023-04-10T23:20:05.707Z,8.95
2023-04-10T23:22:33.967Z,9.01
2023-04-10T23:25:02.294Z,8.91
2023-04-10T23:27:30.560Z,9.49
2023-04-10T23:29:58.861Z,9.31
2023-04-10T23:32:27.246Z,9.42
2023-04-10T23:34:55.507Z,9.65
2023-04-10T23:37:25.144Z,9.38
2023-04-10T23:39:53.450Z,9.43
2023-04-10T23:42:21.663Z,9.12
2023-04-10T23:44:49.874Z,9.66
2023-04-10T23:47:18.134Z,9.78
2023-04-10T23:49:46.425Z,9.42
2023-04-10T23:52:14.722Z,9.05
2023-04-10T23:54:44.608Z,9.90
2023-04-10T23:57:12.877Z,9.72
2023-04-10T23:59:41.144Z,9.65
